createdAt,value
2023-04-24T00:00:09.752Z,3.73
2023-04-24T00:02:48.815Z,3.70
2023-04-24T00:05:20.174Z,4.20
2023-04-24T00:07:55.083Z,4.40
2023-04-24T00:10:27.384Z,5.30
2023-04-24T00:12:58.861Z,4.47
2023-04-24T00:15:30.188Z,4.80
2023-04-24T00:18:02.356Z,4.60
2023-04-24T00:20:34.314Z,4.47
2023-04-24T00:23:05.823Z,4.60
2023-04-24T00:25:37.120Z,4.70
2023-04-24T00:28:08.397Z,4.50
2023-04-24T00:30:39.737Z,4.73
2023-04-24T00:33:11.343Z,3.13
2023-04-24T00:35:42.611Z,3.70
2023-04-24T00:38:13.893Z,3.50
2023-04-24T00:40:45.770Z,3.50
2023-04-24T00:43:17.641Z,3.63
2023-04-24T00:45:49.008Z,3.33
2023-04-24T00:48:21.459Z,2.90
2023-04-24T00:50:52.988Z,3.70
2023-04-24T00:53:24.258Z,3.10
2023-04-24T00:55:55.939Z,3.43
2023-04-24T00:58:27.750Z,3.23
2023-04-24T01:01:02.190Z,3.30
2023-04-24T01:03:34.312Z,3.07
2023-04-24T01:06:06.389Z,3.10
2023-04-24T01:08:38.003Z,3.00
2023-04-24T01:11:09.344Z,3.07
2023-04-24T01:13:40.693Z,2.97
2023-04-24T01:16:12.112Z,2.93
2023-04-24T01:18:44.208Z,3.50
2023-04-24T01:21:17.498Z,3.47
2023-04-24T01:23:48.915Z,3.23
2023-04-24T01:26:21.035Z,2.40
2023-04-24T01:28:53.193Z,3.30
2023-04-24T01:31:25.178Z,2.77
2023-04-24T01:33:57.526Z,2.83
2023-04-24T01:36:32.180Z,3.07
2023-04-24T01:39:04.448Z,3.27
2023-04-24T01:41:35.789Z,3.10
2023-04-24T01:44:07.266Z,3.00
2023-04-24T01:46:39.300Z,3.00
2023-04-24T01:49:11.081Z,3.03
2023-04-24T01:51:42.418Z,3.20
2023-04-24T01:54:13.814Z,2.67
2023-04-24T01:56:46.374Z,3.07
2023-04-24T01:59:18.179Z,2.17
2023-04-24T02:01:49.671Z,2.60
2023-04-24T02:04:21.110Z,2.50
2023-04-24T02:06:52.432Z,2.33
2023-04-24T02:09:23.758Z,2.50
2023-04-24T02:11:55.056Z,2.20
2023-04-24T02:14:26.681Z,2.40
2023-04-24T02:16:58.686Z,2.17
2023-04-24T02:19:30.006Z,2.53
2023-04-24T02:22:01.307Z,2.10
2023-04-24T02:24:32.591Z,2.30
2023-04-24T02:27:04.011Z,2.03
2023-04-24T02:29:35.771Z,2.07
2023-04-24T02:32:07.065Z,2.10
2023-04-24T02:34:39.104Z,1.83
2023-04-24T02:37:10.803Z,2.00
2023-04-24T02:39:42.340Z,1.87
2023-04-24T02:42:13.894Z,1.73
2023-04-24T02:44:45.171Z,1.63
2023-04-24T02:47:16.468Z,1.80
2023-04-24T02:49:47.836Z,1.43
2023-04-24T02:52:19.174Z,1.70
2023-04-24T02:54:50.736Z,1.40
2023-04-24T02:57:22.058Z,1.53
2023-04-24T02:59:53.325Z,1.60
2023-04-24T03:02:24.753Z,1.33
2023-04-24T03:04:56.157Z,1.50
2023-04-24T03:07:27.726Z,1.43
2023-04-24T03:09:59.399Z,1.50
2023-04-24T03:12:30.682Z,1.60
2023-04-24T03:15:01.994Z,1.27
2023-04-24T03:17:33.630Z,1.30
2023-04-24T03:20:06.510Z,1.20
2023-04-24T03:22:37.966Z,1.27
2023-04-24T03:25:10.462Z,1.23
2023-04-24T03:27:42.469Z,1.73
2023-04-24T03:30:13.923Z,1.53
2023-04-24T03:32:45.326Z,1.60
2023-04-24T03:35:16.594Z,1.43
2023-04-24T03:37:47.956Z,1.27
2023-04-24T03:40:19.468Z,1.17
2023-04-24T03:42:50.849Z,1.30
2023-04-24T03:45:22.297Z,1.57
2023-04-24T03:47:53.707Z,1.63
2023-04-24T03:50:25.113Z,1.30
2023-04-24T03:52:56.425Z,1.20
2023-04-24T03:55:27.678Z,1.40
2023-04-24T03:57:59.020Z,1.40
2023-04-24T04:00:32.597Z,1.50
2023-04-24T04:03:04.666Z,1.10
2023-04-24T04:05:36.085Z,1.60
2023-04-24T04:08:07.420Z,1.37
2023-04-24T04:10:38.666Z,1.20
2023-04-24T04:13:09.950Z,1.30
2023-04-24T04:15:41.569Z,1.27
2023-04-24T04:18:13.077Z,1.20
2023-04-24T04:20:44.473Z,1.23
2023-04-24T04:23:15.801Z,3.87
2023-04-24T04:25:47.946Z,1.43
2023-04-24T04:28:20.775Z,1.40
2023-04-24T04:30:55.868Z,1.43
2023-04-24T04:33:27.461Z,1.20
2023-04-24T04:35:59.281Z,1.30
2023-04-24T04:38:30.886Z,1.60
2023-04-24T04:41:03.168Z,1.23
2023-04-24T04:43:35.549Z,1.50
2023-04-24T04:46:07.023Z,1.40
2023-04-24T04:48:38.953Z,1.10
2023-04-24T04:51:10.214Z,1.10
2023-04-24T04:53:41.467Z,1.17
2023-04-24T04:56:12.925Z,1.20
2023-04-24T04:58:44.223Z,1.10
2023-04-24T05:01:15.548Z,1.03
2023-04-24T05:03:47.013Z,1.10
2023-04-24T05:06:18.471Z,0.80
2023-04-24T05:08:49.845Z,1.00
2023-04-24T05:11:21.144Z,1.00
2023-04-24T05:13:52.431Z,1.00
2023-04-24T05:16:23.704Z,0.90
2023-04-24T05:18:54.985Z,1.10
2023-04-24T05:21:26.472Z,0.90
2023-04-24T05:23:57.908Z,0.60
2023-04-24T05:26:29.300Z,0.80
2023-04-24T05:29:01.169Z,1.00
2023-04-24T05:31:32.571Z,0.80
2023-04-24T05:34:03.864Z,0.80
2023-04-24T05:36:35.343Z,0.97
2023-04-24T05:39:08.337Z,1.13
2023-04-24T05:41:39.791Z,1.20
2023-04-24T05:44:11.189Z,1.23
2023-04-24T05:46:42.506Z,1.20
2023-04-24T05:49:13.849Z,1.20
2023-04-24T05:51:45.340Z,1.20
2023-04-24T05:54:16.804Z,1.50
2023-04-24T05:56:48.163Z,1.30
2023-04-24T05:59:19.898Z,1.67
2023-04-24T06:01:51.313Z,1.70
2023-04-24T06:04:22.933Z,1.63
2023-04-24T06:06:56.892Z,1.70
2023-04-24T06:09:28.300Z,1.40
2023-04-24T06:12:00.917Z,1.50
2023-04-24T06:14:32.287Z,1.40
2023-04-24T06:17:03.667Z,1.63
2023-04-24T06:19:34.973Z,1.40
2023-04-24T06:22:06.254Z,1.50
2023-04-24T06:24:37.628Z,1.57
2023-04-24T06:27:08.903Z,1.60
2023-04-24T06:29:40.652Z,1.87
2023-04-24T06:32:12.047Z,1.40
2023-04-24T06:34:43.372Z,1.57
2023-04-24T06:37:15.328Z,1.57
2023-04-24T06:39:46.840Z,1.70
2023-04-24T06:42:18.321Z,1.90
2023-04-24T06:44:49.599Z,2.77
2023-04-24T06:47:20.906Z,2.20
2023-04-24T06:49:53.429Z,2.30
2023-04-24T06:52:24.817Z,2.13
2023-04-24T06:55:02.037Z,2.50
2023-04-24T06:57:33.348Z,2.00
2023-04-24T07:00:06.155Z,2.07
2023-04-24T07:02:38.605Z,2.13
2023-04-24T07:05:10.082Z,2.60
2023-04-24T07:07:41.504Z,2.30
2023-04-24T07:10:13.010Z,3.00
2023-04-24T07:12:44.387Z,2.77
2023-04-24T07:15:15.856Z,2.50
2023-04-24T07:17:47.459Z,2.70
2023-04-24T07:20:18.924Z,2.73
2023-04-24T07:22:50.407Z,2.60
2023-04-24T07:25:21.682Z,2.90
2023-04-24T07:27:54.110Z,2.77
2023-04-24T07:30:26.077Z,3.23
2023-04-24T07:32:57.449Z,3.20
2023-04-24T07:35:28.810Z,2.70
2023-04-24T07:38:00.238Z,3.33
2023-04-24T07:40:31.552Z,3.40
2023-04-24T07:43:02.829Z,2.63
2023-04-24T07:45:37.930Z,3.30
2023-04-24T07:48:09.989Z,3.67
2023-04-24T07:50:41.358Z,2.90
2023-04-24T07:53:12.653Z,2.97
2023-04-24T07:55:44.220Z,3.47
2023-04-24T07:58:16.114Z,3.40
2023-04-24T08:00:47.838Z,3.13
2023-04-24T08:03:20.949Z,3.27
2023-04-24T08:05:52.778Z,3.77
2023-04-24T08:08:24.286Z,3.60
2023-04-24T08:10:55.894Z,4.23
2023-04-24T08:13:27.207Z,4.63
2023-04-24T08:15:58.692Z,4.50
2023-04-24T08:18:30.078Z,4.10
2023-04-24T08:21:02.408Z,3.07
2023-04-24T08:23:33.957Z,3.23
2023-04-24T08:26:05.816Z,3.07
2023-04-24T08:28:37.128Z,2.77
2023-04-24T08:31:08.450Z,3.80
2023-04-24T08:33:41.793Z,3.60
2023-04-24T08:36:13.102Z,3.93
2023-04-24T08:38:44.429Z,3.50
2023-04-24T08:41:16.982Z,4.40
2023-04-24T08:43:48.623Z,3.40
2023-04-24T08:46:20.959Z,4.10
2023-04-24T08:48:53.508Z,4.40
2023-04-24T08:51:27.446Z,4.20
2023-04-24T08:53:58.918Z,3.30
2023-04-24T08:56:31.942Z,3.90
2023-04-24T08:59:03.738Z,4.40
2023-04-24T09:01:36.076Z,3.67
2023-04-24T09:04:11.217Z,4.20
2023-04-24T09:06:42.913Z,3.85
2023-04-24T09:09:14.549Z,4.30
2023-04-24T09:11:45.855Z,3.93
2023-04-24T09:14:17.832Z,4.43
2023-04-24T09:16:49.281Z,4.17
2023-04-24T09:19:22.646Z,4.57
2023-04-24T09:21:55.057Z,4.30
2023-04-24T09:24:26.398Z,4.80
2023-04-24T09:27:05.190Z,4.47
2023-04-24T09:29:36.467Z,5.00
2023-04-24T09:32:22.310Z,5.20
2023-04-24T09:35:14.895Z,5.22
2023-04-24T09:37:47.860Z,5.47
2023-04-24T09:40:21.537Z,5.23
2023-04-24T09:42:54.175Z,5.27
2023-04-24T09:45:39.339Z,5.40
2023-04-24T09:48:11.248Z,6.07
2023-04-24T09:50:47.055Z,5.07
2023-04-24T09:53:25.059Z,6.32
2023-04-24T09:55:56.710Z,6.40
2023-04-24T09:58:30.155Z,6.73
2023-04-24T10:01:01.525Z,6.87
2023-04-24T10:03:34.451Z,5.90
2023-04-24T10:06:09.715Z,6.03
2023-04-24T10:08:41.368Z,5.50
2023-04-24T10:11:14.228Z,6.60
2023-04-24T10:13:45.724Z,5.80
2023-04-24T10:16:17.582Z,5.60
2023-04-24T10:18:49.732Z,6.20
2023-04-24T10:21:21.225Z,6.50
2023-04-24T10:23:52.647Z,5.80
2023-04-24T10:26:24.606Z,7.37
2023-04-24T10:28:58.980Z,5.97
2023-04-24T10:31:33.296Z,6.03
2023-04-24T10:34:06.712Z,5.57
2023-04-24T10:36:42.458Z,6.77
2023-04-24T10:39:15.929Z,5.90
2023-04-24T10:41:50.196Z,6.97
2023-04-24T10:44:23.140Z,6.73
2023-04-24T10:46:56.170Z,6.07
2023-04-24T10:49:31.939Z,6.13
2023-04-24T10:52:07.841Z,5.38
2023-04-24T10:54:47.639Z,6.22
2023-04-24T10:57:22.638Z,5.90
2023-04-24T11:00:12.463Z,5.63
2023-04-24T11:02:50.110Z,4.87
2023-04-24T11:05:22.847Z,5.07
2023-04-24T11:08:17.531Z,4.93
2023-04-24T11:10:57.671Z,5.27
2023-04-24T11:13:56.896Z,4.50
2023-04-24T11:16:34.152Z,4.27
2023-04-24T11:19:11.044Z,4.50
2023-04-24T11:22:03.773Z,4.73
2023-04-24T11:24:41.539Z,4.87
2023-04-24T11:27:18.226Z,4.57
2023-04-24T11:29:55.780Z,5.50
2023-04-24T11:32:33.507Z,5.00
2023-04-24T11:35:09.337Z,4.37
2023-04-24T11:37:42.816Z,4.72
2023-04-24T11:40:20.132Z,4.67
2023-04-24T11:42:52.691Z,4.40
2023-04-24T11:45:30.816Z,4.50
2023-04-24T11:48:03.919Z,4.53
2023-04-24T11:50:36.111Z,4.37
2023-04-24T11:53:07.392Z,4.10
2023-04-24T11:55:38.710Z,4.37
2023-04-24T11:58:09.993Z,3.90
2023-04-24T12:00:41.414Z,4.20
2023-04-24T12:03:13.388Z,4.40
2023-04-24T12:05:46.172Z,4.10
2023-04-24T12:08:30.154Z,4.50
2023-04-24T12:11:05.906Z,3.73
2023-04-24T12:13:37.427Z,3.83
2023-04-24T12:16:08.820Z,3.80
2023-04-24T12:18:44.863Z,3.80
2023-04-24T12:23:57.816Z,3.40
2023-04-24T12:26:29.991Z,3.23
2023-04-24T12:29:02.484Z,3.20
2023-04-24T12:31:33.918Z,3.13
2023-04-24T12:34:17.650Z,3.53
2023-04-24T12:36:49.346Z,3.37
2023-04-24T12:39:21.173Z,3.57
2023-04-24T12:42:00.180Z,3.80
2023-04-24T12:44:35.659Z,3.67
2023-04-24T12:47:07.067Z,2.67
2023-04-24T12:49:38.378Z,3.10
2023-04-24T12:52:09.756Z,2.97
2023-04-24T12:54:41.079Z,3.00
2023-04-24T12:57:12.400Z,2.53
2023-04-24T12:59:44.487Z,2.83
2023-04-24T13:02:18.567Z,2.43
2023-04-24T13:04:50.749Z,2.63
2023-04-24T13:07:22.246Z,3.00
2023-04-24T13:09:55.266Z,2.90
2023-04-24T13:12:27.354Z,3.00
2023-04-24T13:14:59.634Z,3.07
2023-04-24T13:17:30.968Z,3.00
2023-04-24T13:20:02.432Z,2.97
2023-04-24T13:22:33.760Z,2.90
2023-04-24T13:25:06.903Z,2.93
2023-04-24T13:27:39.599Z,3.23
2023-04-24T13:30:11.524Z,2.83
2023-04-24T13:32:42.955Z,3.20
2023-04-24T13:35:14.445Z,3.40
2023-04-24T13:37:45.747Z,3.20
2023-04-24T13:40:17.062Z,2.57
2023-04-24T13:42:48.437Z,2.60
2023-04-24T13:45:25.149Z,2.70
2023-04-24T13:47:58.240Z,3.30
2023-04-24T13:50:29.614Z,2.40
2023-04-24T13:53:03.011Z,2.30
2023-04-24T13:55:34.417Z,2.63
2023-04-24T13:58:08.315Z,2.57
2023-04-24T14:00:39.652Z,1.80
2023-04-24T14:03:11.965Z,2.23
2023-04-24T14:05:43.457Z,2.50
2023-04-24T14:08:14.736Z,1.97
2023-04-24T14:10:46.174Z,2.00
2023-04-24T14:13:17.869Z,1.67
2023-04-24T14:15:49.211Z,1.63
2023-04-24T14:18:20.980Z,2.00
2023-04-24T14:20:52.234Z,1.73
2023-04-24T14:23:23.677Z,1.60
2023-04-24T14:25:55.037Z,1.40
2023-04-24T14:28:27.457Z,1.63
2023-04-24T14:30:58.811Z,1.77
2023-04-24T14:33:30.100Z,2.00
2023-04-24T14:36:03.510Z,1.60
2023-04-24T14:38:35.092Z,1.50
2023-04-24T14:41:13.900Z,1.30
2023-04-24T14:43:45.814Z,1.73
2023-04-24T14:46:17.409Z,1.90
2023-04-24T14:48:48.737Z,1.63
2023-04-24T14:51:20.563Z,1.50
2023-04-24T14:53:52.615Z,1.90
2023-04-24T14:56:24.194Z,2.20
2023-04-24T14:58:56.247Z,2.40
2023-04-24T15:01:27.766Z,2.30
2023-04-24T15:03:59.250Z,1.97
2023-04-24T15:06:31.875Z,2.03
2023-04-24T15:09:03.257Z,2.50
2023-04-24T15:11:34.672Z,1.77
2023-04-24T15:14:06.160Z,1.93
2023-04-24T15:16:37.475Z,1.60
2023-04-24T15:19:08.920Z,2.10
2023-04-24T15:21:42.516Z,2.03
2023-04-24T15:24:13.782Z,2.80
2023-04-24T15:26:45.500Z,3.10
2023-04-24T15:29:16.794Z,3.70
2023-04-24T15:31:48.153Z,3.73
2023-04-24T15:34:19.490Z,4.00
2023-04-24T15:36:50.798Z,3.53
2023-04-24T15:39:23.463Z,3.47
2023-04-24T15:41:54.746Z,3.43
2023-04-24T15:44:26.019Z,3.87
2023-04-24T15:46:57.318Z,4.00
2023-04-24T15:49:28.638Z,3.17
2023-04-24T15:51:59.969Z,3.10
2023-04-24T15:54:31.275Z,3.23
2023-04-24T15:57:02.632Z,2.80
2023-04-24T15:59:34.037Z,2.77
2023-04-24T16:02:05.498Z,2.60
2023-04-24T16:04:37.053Z,2.87
2023-04-24T16:07:08.524Z,2.60
2023-04-24T16:09:40.323Z,2.60
2023-04-24T16:12:11.945Z,2.60
2023-04-24T16:14:43.381Z,2.57
2023-04-24T16:17:14.732Z,2.40
2023-04-24T16:19:46.137Z,2.60
2023-04-24T16:22:17.418Z,2.90
2023-04-24T16:24:48.799Z,3.00
2023-04-24T16:27:20.170Z,2.80
2023-04-24T16:29:51.996Z,2.60
2023-04-24T16:32:23.377Z,3.00
2023-04-24T16:34:54.868Z,3.20
2023-04-24T16:37:26.273Z,3.13
2023-04-24T16:39:57.705Z,3.20
2023-04-24T16:42:29.082Z,3.13
2023-04-24T16:45:00.430Z,2.87
2023-04-24T16:47:31.747Z,3.33
2023-04-24T16:50:04.766Z,2.97
2023-04-24T16:52:36.113Z,3.27
2023-04-24T16:55:07.905Z,2.80
2023-04-24T16:57:39.276Z,3.77
2023-04-24T17:00:11.219Z,2.97
2023-04-24T17:02:42.590Z,3.40
2023-04-24T17:05:14.896Z,3.00
2023-04-24T17:07:46.257Z,4.33
2023-04-24T17:10:17.645Z,3.60
2023-04-24T17:12:48.921Z,3.70
2023-04-24T17:15:20.213Z,3.80
2023-04-24T17:17:51.713Z,3.50
2023-04-24T17:20:24.031Z,3.47
2023-04-24T17:22:55.685Z,3.93
2023-04-24T17:25:27.034Z,3.43
2023-04-24T17:27:58.379Z,3.63
2023-04-24T17:30:29.865Z,3.50
2023-04-24T17:33:01.387Z,4.47
2023-04-24T17:35:34.829Z,3.47
2023-04-24T17:38:06.414Z,4.07
2023-04-24T17:40:38.411Z,3.83
2023-04-24T17:43:09.840Z,3.77
2023-04-24T17:45:41.229Z,3.37
2023-04-24T17:48:13.672Z,2.97
2023-04-24T17:50:45.987Z,2.90
2023-04-24T17:53:18.737Z,3.37
2023-04-24T17:55:50.345Z,2.50
2023-04-24T17:58:21.631Z,3.00
2023-04-24T18:00:52.971Z,2.53
2023-04-24T18:03:24.517Z,2.63
2023-04-24T18:05:56.188Z,2.70
2023-04-24T18:08:27.626Z,2.73
2023-04-24T18:10:59.325Z,2.10
2023-04-24T18:13:30.791Z,2.20
2023-04-24T18:16:02.210Z,2.30
2023-04-24T18:18:33.599Z,2.97
2023-04-24T18:21:05.285Z,3.10
2023-04-24T18:23:36.655Z,2.77
2023-04-24T18:26:08.347Z,3.67
2023-04-24T18:28:39.625Z,4.07
2023-04-24T18:31:11.497Z,4.57
2023-04-24T18:33:43.041Z,4.57
2023-04-24T18:36:14.444Z,4.80
2023-04-24T18:38:45.976Z,4.77
2023-04-24T18:41:17.477Z,5.40
2023-04-24T18:43:49.018Z,4.40
2023-04-24T18:46:20.366Z,5.57
2023-04-24T18:48:51.741Z,4.70
2023-04-24T18:51:23.271Z,4.33
2023-04-24T18:53:54.843Z,4.50
2023-04-24T18:56:26.664Z,4.33
2023-04-24T18:58:57.989Z,4.30
2023-04-24T19:01:29.465Z,4.47
2023-04-24T19:04:01.030Z,5.90
2023-04-24T19:06:32.908Z,4.30
2023-04-24T19:09:04.224Z,4.00
2023-04-24T19:11:35.612Z,4.43
2023-04-24T19:14:07.285Z,3.87
2023-04-24T19:16:38.657Z,4.13
2023-04-24T19:19:10.119Z,3.90
2023-04-24T19:21:41.448Z,3.70
2023-04-24T19:24:12.897Z,3.47
2023-04-24T19:26:45.312Z,3.57
2023-04-24T19:29:16.659Z,3.30
2023-04-24T19:31:48.025Z,3.47
2023-04-24T19:34:19.449Z,3.10
2023-04-24T19:36:51.258Z,2.93
2023-04-24T19:39:22.674Z,2.90
2023-04-24T19:41:55.676Z,2.87
2023-04-24T19:44:27.035Z,3.50
2023-04-24T19:46:58.422Z,2.87
2023-04-24T19:49:30.275Z,3.63
2023-04-24T19:52:01.649Z,2.60
2023-04-24T19:54:33.507Z,3.27
2023-04-24T19:57:04.844Z,2.50
2023-04-24T19:59:36.720Z,2.87
2023-04-24T20:02:09.698Z,2.70
2023-04-24T20:04:41.828Z,3.23
2023-04-24T20:07:13.484Z,3.27
2023-04-24T20:09:44.894Z,2.70
2023-04-24T20:12:16.369Z,3.33
2023-04-24T20:14:48.190Z,2.40
2023-04-24T20:17:19.561Z,3.40
2023-04-24T20:19:50.965Z,2.53
2023-04-24T20:22:22.353Z,2.57
2023-04-24T20:24:53.744Z,2.87
2023-04-24T20:27:25.155Z,3.27
2023-04-24T20:29:56.621Z,3.00
2023-04-24T20:32:27.965Z,2.93
2023-04-24T20:34:59.368Z,2.60
2023-04-24T20:37:30.626Z,3.03
2023-04-24T20:40:05.310Z,3.40
2023-04-24T20:42:36.723Z,3.00
2023-04-24T20:45:08.578Z,3.10
2023-04-24T20:47:39.868Z,3.00
2023-04-24T20:50:11.792Z,3.23
2023-04-24T20:52:43.045Z,2.30
2023-04-24T20:55:15.239Z,3.03
2023-04-24T20:57:46.615Z,2.93
2023-04-24T21:00:18.039Z,2.83
2023-04-24T21:02:49.415Z,2.73
2023-04-24T21:05:21.028Z,3.07
2023-04-24T21:07:55.809Z,2.57
2023-04-24T21:10:27.143Z,3.00
2023-04-24T21:12:58.532Z,3.70
2023-04-24T21:15:30.692Z,3.53
2023-04-24T21:18:02.982Z,2.93
2023-04-24T21:20:34.469Z,2.53
2023-04-24T21:23:05.755Z,3.00
2023-04-24T21:25:37.446Z,3.23
2023-04-24T21:28:08.794Z,3.43
2023-04-24T21:30:40.102Z,4.23
2023-04-24T21:33:12.259Z,3.30
2023-04-24T21:35:43.664Z,3.13
2023-04-24T21:38:15.026Z,3.73
2023-04-24T21:40:46.376Z,4.43
2023-04-24T21:43:18.747Z,3.70
2023-04-24T21:45:52.325Z,3.73
2023-04-24T21:48:23.650Z,4.00
2023-04-24T21:50:55.127Z,3.57
2023-04-24T21:53:26.448Z,3.53
2023-04-24T21:55:57.876Z,4.00
2023-04-24T21:58:29.281Z,3.43
2023-04-24T22:01:00.758Z,2.70
2023-04-24T22:03:32.383Z,3.50
2023-04-24T22:06:03.956Z,3.83
2023-04-24T22:08:35.359Z,3.13
2023-04-24T22:11:13.574Z,3.53
2023-04-24T22:13:51.511Z,3.03
2023-04-24T22:16:23.975Z,3.67
2023-04-24T22:18:55.624Z,3.50
2023-04-24T22:21:27.545Z,3.10
2023-04-24T22:23:58.977Z,3.40
2023-04-24T22:26:30.339Z,3.73
2023-04-24T22:29:01.729Z,3.70
2023-04-24T22:31:33.119Z,3.60
2023-04-24T22:34:06.580Z,3.07
2023-04-24T22:36:37.884Z,3.10
2023-04-24T22:39:10.491Z,3.17
2023-04-24T22:41:42.817Z,3.73
2023-04-24T22:44:14.178Z,3.10
2023-04-24T22:46:46.055Z,3.30
2023-04-24T22:49:17.373Z,3.03
2023-04-24T22:51:49.649Z,3.27
2023-04-24T22:54:20.901Z,3.70
2023-04-24T22:56:52.912Z,2.90
2023-04-24T22:59:24.211Z,3.07
2023-04-24T23:01:56.269Z,3.10
2023-04-24T23:04:27.979Z,2.87
2023-04-24T23:06:59.347Z,2.93
2023-04-24T23:09:30.675Z,3.33
2023-04-24T23:12:02.128Z,3.53
2023-04-24T23:14:34.195Z,3.17
2023-04-24T23:17:05.820Z,3.33
2023-04-24T23:19:37.096Z,2.83
2023-04-24T23:22:08.464Z,2.97
2023-04-24T23:24:39.908Z,2.53
2023-04-24T23:27:11.259Z,3.37
2023-04-24T23:29:42.662Z,3.00
2023-04-24T23:32:13.974Z,2.97
2023-04-24T23:34:45.639Z,3.17
2023-04-24T23:37:19.087Z,3.40
2023-04-24T23:39:50.925Z,2.97
2023-04-24T23:42:22.199Z,3.40
2023-04-24T23:44:53.448Z,3.47
2023-04-24T23:47:24.844Z,3.47
2023-04-24T23:49:56.159Z,3.73
2023-04-24T23:52:27.655Z,3.07
2023-04-24T23:54:59.059Z,3.50
2023-04-24T23:57:31.101Z,3.90
